HK-0003 weather

Peninsula Hotel Helipad
Hong Kong, Hong Kong

Public forecast

Using degrees Celsius for public forecast. Weather courtesy of forecast.io.

Closest aviation weather report (METAR) to Peninsula Hotel Helipad

Closest report is Hong Kong International Airport, 14.3 nm (26.5 km) W. Retrieved 2020/01/25 01:30 UTC (4 minutes ago):

VHHH 250130Z 08009KT 9999 FEW015 SCT030 21/17 Q1018 NOSIG

Closest aviation forecast (TAF) to Peninsula Hotel Helipad

Closest forecast is Hong Kong International Airport, 14.3 nm (26.5 km) W. Retrieved 2020-01-25 00:21 UTC (1 hour ago):

TAF VHHH 242300Z 2500/2606 07010KT 7000 FEW010 SCT025 TX23/2506Z TX20/2606Z TN17/2523Z TEMPO 2509/2515 3500 RA BECMG 2521/2523 34015KT TEMPO 2600/2606 3500 RA